Time;durP1;ratioP1;P1;durP2;ratioP2;P2;SDS_P1;SDS_P2;PMS_P1;PMS_P2;Temp;Humidity;BMP_temperature;BMP_pressure;BME280_temperature;BME280_humidity;BME280_pressure;Samples;Min_cycle;Max_cycle;Signal;HPM_P1;HPM_P2
2021/06/07 00:01:58;;;;;;;1.17;1.07;;;13.30;99.90;;;;;;5000480;28;20583;-87
2021/06/07 00:04:25;;;;;;;1.23;1.13;;;13.30;99.90;;;;;;4983035;28;20175;-87
2021/06/07 00:06:50;;;;;;;1.30;1.20;;;13.30;99.90;;;;;;5001023;28;20226;-87
2021/06/07 00:09:18;;;;;;;1.13;1.03;;;13.30;99.90;;;;;;4983427;28;20179;-87
2021/06/07 00:11:47;;;;;;;1.43;1.10;;;13.30;99.90;;;;;;4982778;28;20183;-87
2021/06/07 00:14:15;;;;;;;1.57;1.30;;;13.30;99.90;;;;;;4982947;28;20218;-87
2021/06/07 00:16:41;;;;;;;1.47;1.00;;;13.30;99.90;;;;;;4983079;28;20211;-87
2021/06/07 00:19:09;;;;;;;1.30;0.97;;;13.30;99.90;;;;;;4983514;28;20634;-87
2021/06/07 00:21:35;;;;;;;1.63;1.23;;;13.30;99.90;;;;;;4983048;28;20183;-87
2021/06/07 00:24:02;;;;;;;1.40;1.30;;;13.30;99.90;;;;;;4982904;28;20185;-87
2021/06/07 00:26:28;;;;;;;1.80;1.47;;;13.30;99.90;;;;;;5000452;28;20188;-87
2021/06/07 00:28:55;;;;;;;1.20;1.10;;;13.30;99.90;;;;;;4983348;28;20185;-87
2021/06/07 00:31:21;;;;;;;1.53;1.10;;;13.30;99.90;;;;;;4982464;28;20176;-87
2021/06/07 00:33:47;;;;;;;1.87;1.10;;;13.30;99.90;;;;;;4981638;28;20180;-87
2021/06/07 00:36:19;;;;;;;1.67;1.30;;;13.30;99.90;;;;;;4982158;28;20195;-87
2021/06/07 00:38:45;;;;;;;1.20;1.10;;;13.30;99.90;;;;;;4982718;28;20195;-87
2021/06/07 00:41:10;;;;;;;1.30;1.20;;;13.30;99.90;;;;;;4982201;28;20176;-87
2021/06/07 00:43:36;;;;;;;1.17;0.93;;;13.20;99.90;;;;;;4999661;28;20211;-87
2021/06/07 00:46:03;;;;;;;2.47;1.00;;;13.20;99.90;;;;;;4982142;28;20200;-87
2021/06/07 00:48:29;;;;;;;1.60;1.23;;;13.20;99.90;;;;;;4998695;28;20574;-87
2021/06/07 00:51:01;;;;;;;1.13;1.00;;;13.20;99.90;;;;;;4998870;28;20246;-87
2021/06/07 00:53:27;;;;;;;1.40;1.20;;;13.20;99.90;;;;;;4999018;28;20160;-87
2021/06/07 00:55:58;;;;;;;1.13;1.03;;;13.20;99.90;;;;;;4999037;28;20199;-87
2021/06/07 00:58:27;;;;;;;2.80;1.20;;;13.20;99.90;;;;;;4981316;28;20215;-87
2021/06/07 01:00:54;;;;;;;1.33;1.20;;;13.20;99.90;;;;;;4980785;28;20175;-87
2021/06/07 01:03:21;;;;;;;3.13;1.13;;;13.20;99.90;;;;;;4998722;28;20633;-87
2021/06/07 01:05:50;;;;;;;1.70;1.30;;;13.20;99.90;;;;;;4980359;28;20243;-87
2021/06/07 01:08:16;;;;;;;1.60;1.30;;;13.20;99.90;;;;;;4980692;28;20637;-87
2021/06/07 01:10:43;;;;;;;1.40;1.30;;;13.10;99.90;;;;;;4980365;28;20183;-87
2021/06/07 01:13:09;;;;;;;1.53;1.30;;;13.10;99.90;;;;;;4981053;28;20210;-87
2021/06/07 01:15:35;;;;;;;1.50;1.40;;;13.10;99.90;;;;;;4999123;28;20202;-87
2021/06/07 01:18:01;;;;;;;1.50;1.20;;;13.10;99.90;;;;;;5009408;28;20275;-87
2021/06/07 01:20:27;;;;;;;1.30;1.20;;;13.10;99.90;;;;;;4982186;28;20261;-87
2021/06/07 01:22:53;;;;;;;1.73;1.30;;;13.10;99.90;;;;;;5000155;28;20182;-87
2021/06/07 01:25:28;;;;;;;3.00;1.40;;;13.00;99.90;;;;;;4982384;28;20203;-87
2021/06/07 01:27:54;;;;;;;2.27;1.50;;;13.00;99.90;;;;;;4982995;28;20176;-87
2021/06/07 01:30:25;;;;;;;1.33;1.23;;;13.00;99.90;;;;;;4982466;28;20180;-87
2021/06/07 01:32:51;;;;;;;1.80;1.40;;;13.00;99.90;;;;;;4982880;28;20179;-87
2021/06/07 01:35:17;;;;;;;1.37;1.27;;;13.00;99.90;;;;;;4982922;28;20195;-87
2021/06/07 01:37:44;;;;;;;1.43;1.33;;;13.00;99.90;;;;;;4982119;28;20266;-87
2021/06/07 01:40:16;;;;;;;1.30;1.20;;;13.00;99.90;;;;;;4982493;28;20278;-87
2021/06/07 01:42:43;;;;;;;1.30;1.20;;;13.00;99.90;;;;;;4982094;28;20167;-87
2021/06/07 01:45:12;;;;;;;3.43;1.40;;;13.00;99.90;;;;;;4981041;28;20207;-87
2021/06/07 01:47:41;;;;;;;1.13;1.10;;;13.00;99.90;;;;;;4981289;28;20179;-87
2021/06/07 01:50:09;;;;;;;1.27;1.17;;;13.00;99.90;;;;;;4981618;28;20551;-87
2021/06/07 01:52:36;;;;;;;1.40;1.30;;;13.00;99.90;;;;;;4981843;28;20219;-87
2021/06/07 01:55:02;;;;;;;1.40;1.30;;;13.00;99.90;;;;;;5001816;28;20179;-87
2021/06/07 01:57:28;;;;;;;1.93;1.40;;;13.00;99.90;;;;;;4981796;28;20210;-87
2021/06/07 01:59:54;;;;;;;1.20;1.10;;;13.00;99.90;;;;;;4981470;28;20179;-87
2021/06/07 02:02:19;;;;;;;1.40;1.30;;;13.00;99.90;;;;;;4981989;28;20179;-87
2021/06/07 02:04:45;;;;;;;1.20;1.10;;;13.00;99.90;;;;;;5000340;28;20182;-87
2021/06/07 02:07:11;;;;;;;1.17;1.00;;;13.00;99.90;;;;;;4982592;28;20214;-87
2021/06/07 02:09:40;;;;;;;1.53;1.30;;;13.00;99.90;;;;;;5000166;28;20202;-87
2021/06/07 02:12:07;;;;;;;1.27;1.17;;;13.00;99.90;;;;;;4982688;28;20183;-87
2021/06/07 02:14:34;;;;;;;1.40;1.30;;;13.00;99.90;;;;;;5000127;28;20198;-86
2021/06/07 02:17:00;;;;;;;2.23;1.40;;;13.00;99.90;;;;;;4999937;28;20684;-87
2021/06/07 02:19:26;;;;;;;1.50;1.40;;;13.00;99.90;;;;;;5000410;28;20211;-87
2021/06/07 02:21:52;;;;;;;2.07;1.50;;;13.00;99.90;;;;;;4982248;28;20542;-87
2021/06/07 02:24:17;;;;;;;6.00;1.63;;;13.00;99.90;;;;;;4982223;28;20175;-86
2021/06/07 02:26:43;;;;;;;1.40;1.30;;;13.00;99.90;;;;;;4982419;28;20291;-87
2021/06/07 02:29:12;;;;;;;1.60;1.50;;;13.00;99.90;;;;;;4982615;28;20184;-87
2021/06/07 02:31:39;;;;;;;1.40;1.30;;;13.00;99.90;;;;;;4998681;28;20665;-87
2021/06/07 02:34:07;;;;;;;1.50;1.40;;;13.00;99.90;;;;;;4981631;28;20219;-87
2021/06/07 02:36:35;;;;;;;1.70;1.60;;;13.00;99.90;;;;;;4981848;28;20554;-86
2021/06/07 02:39:04;;;;;;;1.40;1.30;;;13.00;99.90;;;;;;4983237;28;20175;-86
2021/06/07 02:41:29;;;;;;;1.50;1.40;;;13.00;99.90;;;;;;4981891;28;20187;-87
2021/06/07 02:43:55;;;;;;;2.00;1.67;;;13.00;99.90;;;;;;5000208;28;20190;-86
2021/06/07 02:46:22;;;;;;;3.17;1.70;;;12.90;99.90;;;;;;4984740;28;20202;-87
2021/06/07 02:48:48;;;;;;;1.70;1.60;;;12.90;99.90;;;;;;4984767;28;20183;-87
2021/06/07 02:51:14;;;;;;;1.83;1.73;;;12.90;99.90;;;;;;4984275;28;20206;-87
2021/06/07 02:53:39;;;;;;;1.80;1.70;;;12.90;99.90;;;;;;4984113;28;20711;-87
2021/06/07 02:56:06;;;;;;;2.10;1.90;;;12.90;99.90;;;;;;5002642;28;20723;-87
2021/06/07 02:58:32;;;;;;;1.80;1.70;;;12.90;99.90;;;;;;5005973;28;20203;-87
2021/06/07 03:01:01;;;;;;;1.70;1.60;;;12.90;99.90;;;;;;5005290;28;20205;-87
2021/06/07 03:03:27;;;;;;;2.20;2.00;;;12.80;99.90;;;;;;4987680;28;20242;-87
2021/06/07 03:05:55;;;;;;;2.20;2.00;;;12.80;99.90;;;;;;4988041;28;20203;-87
2021/06/07 03:08:23;;;;;;;2.23;2.00;;;12.80;99.90;;;;;;4988075;28;20184;-87
2021/06/07 03:10:53;;;;;;;3.43;1.80;;;12.80;99.90;;;;;;4986894;28;20243;-87
2021/06/07 03:13:19;;;;;;;1.93;1.83;;;12.70;99.90;;;;;;5004906;28;20675;-87
2021/06/07 03:15:46;;;;;;;1.80;1.70;;;12.70;99.90;;;;;;4987861;28;20230;-87
2021/06/07 03:18:12;;;;;;;2.17;1.97;;;12.60;99.90;;;;;;4986829;28;20219;-87
2021/06/07 03:20:38;;;;;;;2.53;1.87;;;12.60;99.90;;;;;;4986922;28;20187;-87
2021/06/07 03:23:08;;;;;;;2.13;1.93;;;12.60;99.90;;;;;;5005307;28;20179;-87
2021/06/07 03:25:34;;;;;;;2.00;1.90;;;12.60;99.90;;;;;;4987676;28;20207;-87
2021/06/07 03:28:01;;;;;;;2.10;1.90;;;12.70;99.90;;;;;;5004898;28;20179;-87
2021/06/07 03:30:27;;;;;;;1.80;1.70;;;12.60;99.90;;;;;;4987267;28;20217;-87
2021/06/07 03:32:53;;;;;;;2.10;1.90;;;12.60;99.90;;;;;;5005286;28;20672;-86
2021/06/07 03:35:20;;;;;;;2.50;2.30;;;12.60;99.90;;;;;;4987925;28;20204;-87
2021/06/07 03:37:46;;;;;;;2.13;1.93;;;12.60;99.90;;;;;;5005473;28;20203;-87
2021/06/07 03:40:16;;;;;;;1.90;1.80;;;12.60;99.90;;;;;;5004566;28;20180;-87
2021/06/07 03:42:42;;;;;;;2.27;2.00;;;12.60;99.90;;;;;;4988045;28;20180;-87
2021/06/07 03:45:09;;;;;;;1.83;1.73;;;12.60;99.90;;;;;;5004986;28;20187;-86
2021/06/07 03:47:34;;;;;;;2.20;2.00;;;12.60;99.90;;;;;;4987281;28;20180;-87
2021/06/07 03:50:00;;;;;;;1.90;1.70;;;12.70;99.90;;;;;;4986475;28;20251;-87
2021/06/07 03:52:26;;;;;;;2.30;2.10;;;12.70;99.90;;;;;;5005004;28;20182;-87
2021/06/07 03:54:51;;;;;;;2.80;1.90;;;12.80;99.90;;;;;;5005125;28;20179;-87
2021/06/07 03:57:17;;;;;;;2.07;1.80;;;12.80;99.90;;;;;;5005261;28;20199;-87
2021/06/07 03:59:43;;;;;;;2.37;1.80;;;12.80;99.90;;;;;;4987524;28;20176;-87
2021/06/07 04:02:10;;;;;;;2.10;1.80;;;12.80;99.90;;;;;;4987386;28;20181;-86
2021/06/07 04:04:37;;;;;;;2.40;1.90;;;12.90;99.90;;;;;;4987266;28;20267;-87
2021/06/07 04:07:04;;;;;;;1.90;1.73;;;12.90;99.90;;;;;;4987401;28;20229;-86
2021/06/07 04:09:30;;;;;;;1.87;1.77;;;12.90;99.90;;;;;;4986536;28;20213;-87
2021/06/07 04:11:55;;;;;;;1.90;1.70;;;12.90;99.90;;;;;;4986621;28;20180;-87
2021/06/07 04:14:21;;;;;;;2.57;1.70;;;12.90;99.90;;;;;;4987095;28;20230;-87
2021/06/07 04:16:49;;;;;;;1.93;1.63;;;12.90;99.90;;;;;;4986463;28;20289;-87
2021/06/07 04:19:14;;;;;;;2.70;1.60;;;13.00;99.90;;;;;;4986280;28;20197;-87
2021/06/07 04:21:40;;;;;;;1.73;1.63;;;13.00;99.90;;;;;;4986545;28;20175;-87
2021/06/07 04:24:07;;;;;;;2.20;1.73;;;13.00;99.90;;;;;;4986798;28;20172;-86
2021/06/07 04:26:34;;;;;;;2.30;2.10;;;13.10;99.90;;;;;;5004999;28;20195;-87
2021/06/07 04:28:59;;;;;;;2.03;1.83;;;13.00;99.90;;;;;;5004000;28;20174;-87
2021/06/07 04:31:25;;;;;;;1.80;1.70;;;13.10;99.90;;;;;;4986310;28;20178;-87
2021/06/07 04:33:51;;;;;;;3.87;1.93;;;13.10;99.90;;;;;;5004181;28;20227;-86
2021/06/07 04:36:17;;;;;;;2.10;1.90;;;13.10;99.90;;;;;;5004202;28;20226;-87
2021/06/07 04:38:43;;;;;;;2.20;2.00;;;13.10;99.90;;;;;;4985602;28;20203;-87
2021/06/07 04:41:09;;;;;;;2.30;2.10;;;13.10;99.90;;;;;;5003970;28;20178;-87
2021/06/07 04:43:35;;;;;;;2.40;2.20;;;13.10;99.90;;;;;;4986299;28;20234;-87
2021/06/07 04:46:00;;;;;;;1.97;1.87;;;13.10;99.90;;;;;;4986297;28;20283;-87
2021/06/07 04:48:26;;;;;;;3.30;2.33;;;13.20;99.90;;;;;;4986683;28;20659;-88
2021/06/07 04:50:52;;;;;;;2.20;1.97;;;13.20;99.90;;;;;;4986405;28;20186;-88
2021/06/07 04:53:18;;;;;;;2.30;2.10;;;13.20;99.90;;;;;;4987233;28;20650;-87
2021/06/07 04:55:49;;;;;;;2.20;1.70;;;13.20;99.90;;;;;;4982436;28;20259;-86
2021/06/07 04:58:18;;;;;;;3.70;2.00;;;13.30;99.90;;;;;;4998856;28;20206;-86
2021/06/07 05:00:59;;;;;;;1.90;1.80;;;13.30;99.90;;;;;;4998547;28;20174;-87
2021/06/07 05:03:26;;;;;;;2.17;2.00;;;13.30;99.90;;;;;;4982121;28;20177;-86
2021/06/07 05:05:56;;;;;;;2.60;2.40;;;13.30;99.90;;;;;;4981852;28;20198;-86
2021/06/07 05:08:26;;;;;;;2.03;1.87;;;13.30;99.90;;;;;;4980934;28;20634;-86
2021/06/07 05:10:53;;;;;;;2.77;2.20;;;13.30;99.90;;;;;;4996597;28;20187;-86
2021/06/07 05:13:19;;;;;;;2.50;2.30;;;13.40;99.90;;;;;;4982693;28;20192;-86
2021/06/07 05:15:44;;;;;;;2.80;2.60;;;13.40;99.90;;;;;;4999606;28;20202;-86
2021/06/07 05:18:11;;;;;;;2.63;2.33;;;13.50;99.90;;;;;;4981865;28;20289;-86
2021/06/07 05:20:37;;;;;;;2.30;2.07;;;13.40;99.90;;;;;;4980967;28;20182;-86
2021/06/07 05:23:03;;;;;;;2.30;2.10;;;13.50;99.90;;;;;;4982808;28;20171;-86
2021/06/07 05:25:31;;;;;;;6.00;3.23;;;13.60;99.90;;;;;;5000742;28;20195;-86
2021/06/07 05:27:59;;;;;;;3.80;2.80;;;13.60;99.90;;;;;;5000778;28;20184;-86
2021/06/07 05:30:28;;;;;;;10.63;4.00;;;13.70;99.90;;;;;;4985749;28;20596;-87
2021/06/07 05:32:56;;;;;;;24.80;8.03;;;13.80;99.90;;;;;;4984994;28;20192;-86
2021/06/07 05:35:27;;;;;;;7.67;3.87;;;13.80;99.90;;;;;;4984322;28;20622;-86
2021/06/07 05:37:53;;;;;;;5.27;2.70;;;13.90;99.90;;;;;;4985700;28;20213;-86
2021/06/07 05:40:20;;;;;;;3.80;2.60;;;14.00;99.90;;;;;;4985182;28;20175;-87
2021/06/07 05:42:47;;;;;;;5.33;2.40;;;14.00;99.90;;;;;;4980432;28;20180;-88
2021/06/07 05:45:15;;;;;;;3.47;2.27;;;14.10;99.90;;;;;;4979468;28;20195;-88
2021/06/07 05:47:41;;;;;;;1.93;1.83;;;14.10;99.90;;;;;;4980197;28;20250;-88
2021/06/07 05:50:11;;;;;;;3.07;1.70;;;14.20;99.90;;;;;;4979492;28;20692;-88
2021/06/07 05:52:45;;;;;;;2.03;1.60;;;14.20;99.90;;;;;;4979252;28;20273;-88
2021/06/07 05:55:24;;;;;;;2.93;1.70;;;14.30;99.90;;;;;;4979966;28;20202;-88
2021/06/07 05:57:52;;;;;;;3.27;1.97;;;14.30;99.90;;;;;;4999481;28;20584;-87
2021/06/07 06:00:22;;;;;;;3.90;1.90;;;14.40;99.90;;;;;;4981286;28;20175;-87
2021/06/07 06:02:48;;;;;;;5.10;2.37;;;14.40;99.90;;;;;;4983140;28;20175;-87
2021/06/07 06:05:15;;;;;;;4.63;2.17;;;14.40;99.90;;;;;;4984022;28;20202;-87
2021/06/07 06:07:40;;;;;;;3.30;2.07;;;14.40;99.90;;;;;;5001533;28;20644;-86
2021/06/07 06:10:07;;;;;;;5.33;2.20;;;14.50;99.90;;;;;;5001743;28;20197;-87
2021/06/07 06:12:33;;;;;;;2.57;1.90;;;14.60;99.90;;;;;;4984767;28;20187;-86
2021/06/07 06:14:59;;;;;;;1.83;1.50;;;14.70;99.90;;;;;;5002629;28;20174;-87
2021/06/07 06:17:24;;;;;;;2.20;1.87;;;14.70;99.90;;;;;;4984470;28;20219;-86
2021/06/07 06:19:50;;;;;;;1.63;1.53;;;14.70;99.90;;;;;;4984147;28;20652;-86
2021/06/07 06:22:16;;;;;;;2.07;1.80;;;14.80;99.90;;;;;;5002301;28;20182;-86
2021/06/07 06:24:42;;;;;;;1.63;1.53;;;15.00;99.90;;;;;;5001890;28;20184;-86
2021/06/07 06:27:09;;;;;;;1.50;1.40;;;15.10;99.90;;;;;;5001768;28;20246;-86
2021/06/07 06:29:36;;;;;;;2.40;1.50;;;15.10;99.90;;;;;;4985209;28;20238;-86
2021/06/07 06:32:04;;;;;;;1.87;1.67;;;15.20;99.90;;;;;;4983444;28;20184;-86
2021/06/07 06:34:30;;;;;;;1.47;1.30;;;15.40;99.90;;;;;;4983889;28;20551;-86
2021/06/07 06:36:56;;;;;;;1.73;1.60;;;15.40;99.90;;;;;;4983504;28;20215;-86
2021/06/07 06:39:21;;;;;;;2.30;1.70;;;15.40;99.90;;;;;;5001486;28;20168;-86
2021/06/07 06:41:47;;;;;;;3.30;1.50;;;15.50;99.90;;;;;;4983863;28;20637;-86
2021/06/07 06:44:13;;;;;;;2.70;1.63;;;15.50;99.90;;;;;;5002150;28;20172;-85
2021/06/07 06:46:39;;;;;;;3.63;1.80;;;15.60;99.90;;;;;;5001039;28;20195;-86
2021/06/07 06:49:05;;;;;;;2.27;1.80;;;15.70;99.90;;;;;;4983555;28;20184;-86
2021/06/07 06:51:31;;;;;;;2.93;1.70;;;15.80;99.90;;;;;;5001064;28;20219;-86
2021/06/07 06:53:57;;;;;;;2.03;1.50;;;15.90;99.90;;;;;;4983505;28;20175;-86
2021/06/07 06:56:22;;;;;;;1.40;1.30;;;15.90;99.90;;;;;;4983384;28;20254;-85
2021/06/07 06:58:48;;;;;;;3.27;1.53;;;16.10;99.90;;;;;;4983665;28;20258;-86
2021/06/07 07:01:14;;;;;;;1.37;1.27;;;16.20;99.90;;;;;;4983357;28;20577;-85
2021/06/07 07:03:40;;;;;;;1.30;1.00;;;16.20;99.90;;;;;;4983562;28;20259;-86
2021/06/07 07:06:07;;;;;;;1.10;1.00;;;16.20;99.90;;;;;;4983321;28;20695;-86
2021/06/07 07:08:33;;;;;;;1.83;1.17;;;16.20;99.90;;;;;;4983035;28;20541;-86
2021/06/07 07:10:58;;;;;;;0.70;0.70;;;16.30;99.90;;;;;;5001050;28;20176;-86
2021/06/07 07:13:24;;;;;;;0.90;0.80;;;16.30;99.90;;;;;;5000961;28;20187;-86
2021/06/07 07:15:50;;;;;;;0.80;0.73;;;16.50;99.90;;;;;;4983242;28;20199;-86
2021/06/07 07:18:16;;;;;;;2.37;0.97;;;16.60;99.90;;;;;;4982556;28;20217;-86
2021/06/07 07:20:42;;;;;;;1.30;0.83;;;16.70;99.90;;;;;;4982937;28;20179;-86
2021/06/07 07:23:09;;;;;;;0.60;0.60;;;16.70;99.90;;;;;;5001275;28;20172;-86
2021/06/07 07:25:36;;;;;;;1.43;0.70;;;16.80;99.90;;;;;;4983723;28;20199;-86
2021/06/07 07:28:03;;;;;;;0.90;0.80;;;16.80;99.90;;;;;;4983766;28;20250;-86
2021/06/07 07:30:30;;;;;;;0.60;0.60;;;16.90;99.90;;;;;;5001646;28;20703;-86
2021/06/07 07:32:56;;;;;;;1.03;0.80;;;17.00;99.90;;;;;;4984817;28;20198;-86
2021/06/07 07:35:23;;;;;;;0.80;0.80;;;17.10;99.90;;;;;;5001963;28;20191;-86
2021/06/07 07:37:49;;;;;;;0.80;0.80;;;17.20;99.90;;;;;;5001555;28;20202;-86
2021/06/07 07:40:18;;;;;;;0.67;0.67;;;17.20;99.90;;;;;;5001894;28;20175;-86
2021/06/07 07:42:43;;;;;;;0.50;0.50;;;17.30;99.90;;;;;;5000961;28;20167;-86
2021/06/07 07:45:11;;;;;;;0.87;0.70;;;17.50;99.90;;;;;;4985105;28;20250;-86
2021/06/07 07:47:37;;;;;;;0.60;0.60;;;17.70;99.90;;;;;;4984355;28;20183;-86
2021/06/07 07:50:05;;;;;;;1.13;0.80;;;18.10;99.90;;;;;;5001648;28;20175;-86
2021/06/07 07:52:31;;;;;;;2.80;0.67;;;18.30;99.90;;;;;;4984608;28;20179;-86
2021/06/07 07:54:57;;;;;;;0.97;0.90;;;18.50;99.90;;;;;;4984500;28;20680;-86
2021/06/07 07:57:25;;;;;;;0.80;0.80;;;18.80;99.90;;;;;;5001919;28;20600;-86
2021/06/07 07:59:51;;;;;;;0.60;0.60;;;18.90;99.90;;;;;;4987729;28;20677;-85
2021/06/07 08:02:17;;;;;;;1.07;0.80;;;18.90;99.90;;;;;;4983797;28;20204;-86
2021/06/07 08:04:43;;;;;;;0.80;0.80;;;18.80;99.90;;;;;;4982294;28;20204;-86
2021/06/07 08:07:09;;;;;;;2.37;0.80;;;18.80;99.90;;;;;;4982581;28;20681;-86
2021/06/07 08:09:36;;;;;;;1.20;0.60;;;18.90;99.90;;;;;;5000121;28;20246;-86
2021/06/07 08:12:03;;;;;;;0.60;0.60;;;19.00;99.90;;;;;;4982237;28;20247;-86
2021/06/07 08:14:29;;;;;;;0.70;0.70;;;19.00;99.90;;;;;;4999961;28;20192;-86
2021/06/07 08:16:55;;;;;;;2.33;0.70;;;18.90;99.90;;;;;;4999903;28;20218;-86
2021/06/07 08:19:22;;;;;;;0.70;0.70;;;19.30;99.90;;;;;;4982065;28;20569;-86
2021/06/07 08:21:48;;;;;;;1.30;0.90;;;19.70;99.90;;;;;;4999527;28;20176;-86
2021/06/07 08:24:14;;;;;;;0.50;0.50;;;20.00;99.90;;;;;;4999810;28;20211;-86
2021/06/07 08:26:40;;;;;;;0.60;0.60;;;20.20;99.90;;;;;;4981719;28;20565;-86
2021/06/07 08:29:07;;;;;;;0.97;0.67;;;20.30;99.90;;;;;;4998952;28;20176;-86
2021/06/07 08:31:34;;;;;;;0.60;0.60;;;20.10;99.90;;;;;;4981447;28;20187;-86
2021/06/07 08:34:00;;;;;;;0.60;0.60;;;20.10;99.90;;;;;;4981720;28;20183;-86
2021/06/07 08:36:26;;;;;;;1.13;0.70;;;19.90;99.90;;;;;;4982243;28;20282;-86
2021/06/07 08:38:52;;;;;;;1.47;0.70;;;19.70;99.90;;;;;;4999616;28;20203;-86
2021/06/07 08:41:19;;;;;;;0.80;0.70;;;19.60;99.90;;;;;;4981405;28;20272;-86
2021/06/07 08:43:45;;;;;;;1.00;0.87;;;19.50;99.90;;;;;;4981770;28;20185;-86
2021/06/07 08:46:12;;;;;;;2.77;0.80;;;19.30;99.90;;;;;;4981489;28;20263;-86
2021/06/07 08:48:38;;;;;;;1.10;1.00;;;19.30;99.90;;;;;;4981275;28;20187;-86
2021/06/07 08:51:04;;;;;;;0.80;0.80;;;19.40;99.90;;;;;;4998503;28;20526;-86
2021/06/07 08:53:30;;;;;;;1.17;0.90;;;19.50;99.90;;;;;;4980998;28;20183;-86
2021/06/07 08:55:57;;;;;;;2.13;0.80;;;19.70;99.90;;;;;;4998545;28;20208;-86
2021/06/07 08:58:23;;;;;;;0.97;0.67;;;19.80;99.90;;;;;;4998914;28;20202;-86
2021/06/07 09:00:49;;;;;;;0.87;0.80;;;20.00;99.90;;;;;;4980942;28;20183;-86
2021/06/07 09:03:19;;;;;;;0.70;0.70;;;20.30;99.90;;;;;;4980883;28;20570;-86
2021/06/07 09:05:56;;;;;;;0.70;0.70;;;20.60;99.90;;;;;;4980854;28;20210;-86
2021/06/07 09:08:30;;;;;;;1.80;0.70;;;20.80;99.90;;;;;;4981013;28;20172;-86
2021/06/07 09:10:56;;;;;;;0.70;0.70;;;20.90;99.90;;;;;;4998069;28;20177;-86
2021/06/07 09:13:24;;;;;;;1.90;0.80;;;21.00;99.90;;;;;;4980319;28;20739;-86
2021/06/07 09:15:52;;;;;;;2.33;0.80;;;20.90;99.90;;;;;;4998031;28;20230;-86
2021/06/07 09:18:30;;;;;;;1.10;0.70;;;21.00;99.90;;;;;;4980572;28;20207;-86
2021/06/07 09:21:19;;;;;;;0.70;0.70;;;21.20;99.90;;;;;;4980203;28;20190;-86
2021/06/07 09:23:47;;;;;;;0.90;0.80;;;21.30;99.90;;;;;;4981210;28;20186;-87
2021/06/07 09:26:24;;;;;;;4.80;1.00;;;21.30;99.90;;;;;;5002207;28;20193;-86
2021/06/07 09:28:53;;;;;;;0.93;0.80;;;21.20;99.90;;;;;;4991037;28;20189;-87
2021/06/07 09:31:26;;;;;;;3.67;0.90;;;21.10;99.90;;;;;;5003722;28;20174;-86
2021/06/07 09:33:52;;;;;;;1.00;0.90;;;21.30;99.90;;;;;;4986539;28;20175;-86
2021/06/07 09:36:23;;;;;;;2.70;0.73;;;21.50;99.90;;;;;;5002538;28;20589;-87
2021/06/07 09:39:18;;;;;;;0.87;0.80;;;21.60;99.90;;;;;;4986158;28;20210;-87
2021/06/07 09:41:47;;;;;;;1.00;0.80;;;21.90;99.90;;;;;;4985698;28;20179;-87
2021/06/07 09:44:25;;;;;;;1.20;0.90;;;22.00;99.90;;;;;;4984664;28;20633;-87
2021/06/07 09:46:52;;;;;;;1.37;0.90;;;22.00;99.90;;;;;;4983865;28;20294;-87
2021/06/07 09:49:22;;;;;;;0.83;0.70;;;21.80;99.90;;;;;;4983402;28;20251;-87
2021/06/07 09:51:56;;;;;;;1.13;0.87;;;21.60;99.90;;;;;;4983466;28;20190;-87
2021/06/07 09:54:24;;;;;;;3.03;1.10;;;21.30;99.90;;;;;;4983460;28;20182;-87
2021/06/07 09:56:55;;;;;;;1.20;1.03;;;21.20;99.90;;;;;;4983937;28;20203;-87
2021/06/07 09:59:27;;;;;;;3.97;1.20;;;21.00;99.90;;;;;;4983145;28;20186;-87
2021/06/07 10:01:55;;;;;;;7.23;1.23;;;20.80;99.90;;;;;;5002580;28;20176;-87
2021/06/07 10:04:21;;;;;;;1.50;1.40;;;20.60;99.90;;;;;;5000816;28;20204;-87
2021/06/07 10:06:47;;;;;;;4.60;1.10;;;20.50;99.90;;;;;;4981140;28;20198;-87
2021/06/07 10:09:18;;;;;;;2.97;1.40;;;20.30;99.90;;;;;;5000705;28;20180;-87
2021/06/07 10:11:45;;;;;;;1.30;1.20;;;20.10;99.90;;;;;;4982053;28;20188;-87
2021/06/07 10:14:19;;;;;;;1.40;1.30;;;20.00;99.90;;;;;;4982879;28;20199;-87
2021/06/07 10:16:57;;;;;;;1.00;0.90;;;19.90;99.90;;;;;;5000282;28;20195;-87
2021/06/07 10:22:08;;;;;;;0.80;0.80;;;20.00;99.90;;;;;;4998892;28;20162;-87
2021/06/07 10:24:34;;;;;;;2.03;1.00;;;20.10;99.90;;;;;;4980724;28;20175;-87
2021/06/07 10:27:00;;;;;;;1.10;0.77;;;20.10;99.90;;;;;;4981531;28;20226;-87
2021/06/07 10:29:33;;;;;;;1.10;0.90;;;20.10;99.90;;;;;;4981551;28;20551;-87
2021/06/07 10:32:06;;;;;;;1.53;0.80;;;20.10;99.90;;;;;;4980966;28;20186;-87
2021/06/07 10:34:52;;;;;;;1.03;0.80;;;20.10;99.90;;;;;;4980869;28;20188;-87
2021/06/07 10:37:18;;;;;;;0.70;0.60;;;20.10;99.90;;;;;;4980807;28;20204;-87
2021/06/07 10:39:45;;;;;;;1.00;0.83;;;20.00;99.90;;;;;;4982387;28;20272;-87
2021/06/07 10:42:17;;;;;;;1.83;0.90;;;19.90;99.90;;;;;;4983672;28;20199;-87
2021/06/07 10:44:47;;;;;;;0.80;0.70;;;20.00;99.90;;;;;;4984126;28;20195;-87
2021/06/07 10:47:20;;;;;;;0.67;0.60;;;19.90;99.90;;;;;;4983511;28;20195;-86
2021/06/07 10:49:47;;;;;;;0.70;0.70;;;19.90;99.90;;;;;;4983427;28;20191;-87
2021/06/07 10:52:18;;;;;;;1.20;1.00;;;19.90;99.90;;;;;;4983557;28;20184;-87
2021/06/07 10:54:57;;;;;;;1.10;0.77;;;19.80;99.90;;;;;;4982826;28;20181;-86
2021/06/07 10:57:26;;;;;;;2.60;0.90;;;19.50;99.90;;;;;;5001220;28;20188;-87
2021/06/07 11:00:03;;;;;;;4.00;0.80;;;19.30;99.90;;;;;;4983720;28;20176;-87
2021/06/07 11:02:34;;;;;;;2.10;0.80;;;19.30;99.90;;;;;;4984224;28;20514;-87
2021/06/07 11:05:14;;;;;;;2.00;0.90;;;19.40;99.90;;;;;;4984251;28;20580;-87
2021/06/07 11:07:58;;;;;;;1.10;0.90;;;19.50;99.90;;;;;;5001701;28;20177;-87
2021/06/07 11:10:29;;;;;;;3.33;0.87;;;19.70;99.90;;;;;;4983570;28;20188;-87
2021/06/07 11:13:12;;;;;;;1.57;0.83;;;20.00;99.90;;;;;;4983874;28;20200;-87
2021/06/07 11:15:58;;;;;;;5.23;0.80;;;20.30;99.90;;;;;;5002042;28;20220;-87
2021/06/07 11:18:38;;;;;;;0.80;0.80;;;20.50;99.90;;;;;;4986302;28;20243;-87
2021/06/07 11:21:07;;;;;;;2.00;0.90;;;20.50;99.90;;;;;;4987436;28;20207;-87
2021/06/07 11:23:44;;;;;;;1.10;1.00;;;20.50;99.90;;;;;;4987981;28;20183;-87
2021/06/07 11:26:38;;;;;;;0.97;0.90;;;20.50;99.90;;;;;;4987621;28;20226;-87
2021/06/07 11:29:04;;;;;;;1.20;0.93;;;20.30;99.90;;;;;;4980117;28;20188;-87
2021/06/07 11:31:32;;;;;;;4.20;1.30;;;20.20;99.90;;;;;;5003979;28;20176;-87
2021/06/07 11:34:04;;;;;;;1.10;1.00;;;20.20;99.90;;;;;;5003575;28;20172;-86
2021/06/07 11:36:38;;;;;;;1.57;0.90;;;20.20;99.90;;;;;;5004442;28;20195;-87
2021/06/07 11:39:07;;;;;;;0.80;0.80;;;20.20;99.90;;;;;;5003541;28;20211;-87
2021/06/07 11:41:40;;;;;;;0.83;0.70;;;20.20;99.90;;;;;;5003828;28;20655;-87
2021/06/07 11:44:06;;;;;;;2.63;0.90;;;20.40;99.90;;;;;;4985752;28;20259;-86
2021/06/07 11:46:32;;;;;;;4.80;0.93;;;20.80;99.90;;;;;;5003156;28;20264;-87
2021/06/07 11:49:06;;;;;;;2.03;1.00;;;21.40;99.90;;;;;;4985649;28;20180;-87
2021/06/07 11:51:34;;;;;;;4.03;0.70;;;21.50;99.90;;;;;;4985343;28;20819;-87
2021/06/07 11:54:20;;;;;;;0.97;0.90;;;21.40;99.90;;;;;;5004688;28;20216;-87
2021/06/07 11:56:52;;;;;;;0.80;0.70;;;21.00;99.90;;;;;;5001948;28;20207;-87
2021/06/07 11:59:27;;;;;;;2.23;0.90;;;20.60;99.90;;;;;;4983751;28;20173;-86
2021/06/07 12:01:53;;;;;;;0.90;0.80;;;20.60;99.90;;;;;;4986892;28;20167;-87
2021/06/07 12:04:37;;;;;;;2.00;0.73;;;20.50;99.90;;;;;;5002101;28;20691;-88
2021/06/07 12:07:07;;;;;;;0.60;0.60;;;20.70;99.90;;;;;;4990913;28;20200;-86
2021/06/07 12:09:35;;;;;;;1.00;0.80;;;21.00;99.90;;;;;;5002554;28;20647;-86
2021/06/07 12:12:02;;;;;;;2.50;0.90;;;21.50;99.90;;;;;;4984718;28;20243;-86
2021/06/07 12:14:33;;;;;;;1.27;0.83;;;22.00;99.90;;;;;;4984021;28;20208;-86
2021/06/07 12:17:17;;;;;;;1.00;0.90;;;22.10;99.90;;;;;;5001598;28;20657;-86
2021/06/07 12:19:46;;;;;;;3.87;0.70;;;22.00;99.90;;;;;;4983577;28;20172;-84
2021/06/07 12:22:33;;;;;;;0.93;0.80;;;21.90;99.90;;;;;;4983883;28;20185;-85
2021/06/07 12:30:41;;;;;;;2.40;0.90;;;20.60;99.90;;;;;;5002029;28;20521;-85
2021/06/07 12:33:07;;;;;;;1.00;0.90;;;20.60;99.90;;;;;;5001570;28;20177;-86
2021/06/07 12:35:36;;;;;;;0.77;0.67;;;20.60;99.90;;;;;;4982851;28;20228;-85
2021/06/07 12:38:07;;;;;;;0.70;0.70;;;20.40;99.90;;;;;;4982566;28;20203;-86
2021/06/07 12:40:44;;;;;;;1.50;1.40;;;20.40;99.90;;;;;;4999602;28;20177;-85
2021/06/07 12:43:10;;;;;;;0.97;0.83;;;20.50;99.90;;;;;;5000326;28;20165;-85
2021/06/07 12:45:49;;;;;;;4.43;0.70;;;20.50;99.90;;;;;;4999926;28;20322;-86
2021/06/07 12:48:18;;;;;;;1.47;0.83;;;20.70;99.90;;;;;;4982473;28;20207;-86
2021/06/07 12:51:02;;;;;;;10.73;4.53;;;20.90;99.90;;;;;;4982132;28;20177;-86
2021/06/07 12:53:31;;;;;;;6.20;2.20;;;21.00;99.90;;;;;;4981822;28;20706;-86
2021/06/07 12:56:02;;;;;;;14.17;5.83;;;20.90;99.90;;;;;;4982303;28;20300;-85
2021/06/07 12:58:29;;;;;;;1.87;1.10;;;20.80;99.90;;;;;;4982259;28;20313;-79
2021/06/07 13:00:58;;;;;;;2.70;0.70;;;20.70;99.90;;;;;;4998393;28;20245;-83